createdAt,value
2023-08-12T00:00:22.872Z,5.35
2023-08-12T00:02:50.080Z,8.07
2023-08-12T00:05:16.999Z,6.35
2023-08-12T00:07:44.190Z,6.20
2023-08-12T00:10:12.368Z,4.45
2023-08-12T00:12:39.777Z,9.40
2023-08-12T00:15:09.253Z,5.20
2023-08-12T00:17:42.563Z,7.82
2023-08-12T00:20:11.697Z,4.95
2023-08-12T00:22:39.337Z,5.30
2023-08-12T00:25:08.265Z,6.85
2023-08-12T00:27:35.495Z,9.40
2023-08-12T00:30:02.637Z,7.20
2023-08-12T00:32:29.756Z,4.15
2023-08-12T00:34:57.693Z,10.07
2023-08-12T00:37:24.700Z,8.57
2023-08-12T00:39:51.605Z,4.38
2023-08-12T00:42:18.499Z,6.80
2023-08-12T00:44:45.867Z,10.45
2023-08-12T00:47:13.279Z,6.85
2023-08-12T00:49:42.139Z,9.00
2023-08-12T00:52:09.000Z,7.47
2023-08-12T00:54:35.932Z,6.53
2023-08-12T00:57:02.879Z,7.15
2023-08-12T00:59:30.284Z,13.65
2023-08-12T01:01:57.223Z,7.10
2023-08-12T01:04:24.060Z,8.50
2023-08-12T01:06:51.394Z,10.10
2023-08-12T01:09:18.343Z,6.07
2023-08-12T01:12:18.169Z,12.65
2023-08-12T01:14:58.677Z,13.93
2023-08-12T01:17:28.590Z,6.07
2023-08-12T01:19:56.884Z,11.15
2023-08-12T01:22:26.612Z,14.60
2023-08-12T01:24:53.606Z,13.68
2023-08-12T01:27:21.407Z,15.32
2023-08-12T01:29:51.230Z,8.45
2023-08-12T01:32:33.774Z,18.25
2023-08-12T01:35:06.688Z,15.40
2023-08-12T01:37:36.307Z,8.13
2023-08-12T01:40:06.008Z,9.80
2023-08-12T01:42:35.027Z,6.03
2023-08-12T01:45:02.667Z,13.38
2023-08-12T01:47:30.100Z,7.10
2023-08-12T01:49:57.399Z,14.57
2023-08-12T01:52:25.018Z,8.27
2023-08-12T01:54:52.294Z,24.42
2023-08-12T01:57:19.296Z,27.52
2023-08-12T01:59:46.142Z,24.38
2023-08-12T02:02:13.236Z,15.32
2023-08-12T02:04:41.739Z,28.08
2023-08-12T02:07:09.054Z,13.00
2023-08-12T02:09:37.197Z,24.13
2023-08-12T02:12:04.357Z,42.42
2023-08-12T02:14:31.221Z,13.40
2023-08-12T02:16:58.057Z,26.08
2023-08-12T02:19:25.616Z,40.20
2023-08-12T02:21:53.907Z,22.25
2023-08-12T02:24:20.735Z,25.95
2023-08-12T02:26:47.579Z,29.08
2023-08-12T02:29:14.586Z,18.83
2023-08-12T02:31:41.436Z,29.27
2023-08-12T02:34:08.481Z,22.55
2023-08-12T02:36:35.671Z,15.88
2023-08-12T02:39:02.575Z,33.80
2023-08-12T02:41:31.662Z,15.20
2023-08-12T02:43:58.545Z,14.70
2023-08-12T02:46:26.597Z,31.92
2023-08-12T02:48:53.423Z,23.88
2023-08-12T02:51:20.255Z,40.72
2023-08-12T02:53:47.181Z,16.55
2023-08-12T02:56:14.264Z,34.60
2023-08-12T02:58:41.234Z,31.65
2023-08-12T03:01:08.115Z,33.42
2023-08-12T03:03:35.117Z,18.58
2023-08-12T03:06:02.085Z,27.45
2023-08-12T03:08:30.392Z,13.35
2023-08-12T03:11:02.211Z,29.75
2023-08-12T03:13:30.292Z,14.82
2023-08-12T03:15:57.786Z,18.27
2023-08-12T03:18:25.785Z,13.13
2023-08-12T03:20:52.808Z,14.15
2023-08-12T03:23:21.695Z,16.35
2023-08-12T03:25:49.569Z,26.17
2023-08-12T03:28:17.458Z,20.90
2023-08-12T03:30:51.758Z,21.15
2023-08-12T03:33:20.905Z,19.20
2023-08-12T03:35:49.877Z,19.40
2023-08-12T03:38:17.511Z,12.32
2023-08-12T03:40:45.787Z,16.45
2023-08-12T03:43:15.045Z,18.05
2023-08-12T03:45:44.951Z,20.40
2023-08-12T03:48:13.794Z,14.80
2023-08-12T03:50:41.680Z,12.07
2023-08-12T03:53:10.098Z,18.83
2023-08-12T03:55:38.060Z,18.10
2023-08-12T03:58:05.350Z,13.93
2023-08-12T04:00:33.217Z,13.93
2023-08-12T04:03:02.200Z,11.35
2023-08-12T04:05:29.192Z,12.75
2023-08-12T04:07:56.058Z,13.00
2023-08-12T04:10:22.908Z,15.38
2023-08-12T04:12:49.836Z,11.43
2023-08-12T04:15:18.323Z,12.60
2023-08-12T04:17:45.279Z,10.82
2023-08-12T04:20:12.319Z,9.90
2023-08-12T04:22:39.255Z,15.25
2023-08-12T04:25:06.752Z,11.35
2023-08-12T04:27:33.585Z,11.02
2023-08-12T04:30:01.666Z,10.70
2023-08-12T04:32:29.762Z,9.90
2023-08-12T04:34:56.659Z,7.80
2023-08-12T04:37:25.340Z,9.48
2023-08-12T04:39:52.663Z,8.45
2023-08-12T04:42:20.975Z,8.48
2023-08-12T04:44:47.963Z,9.30
2023-08-12T04:47:14.938Z,7.60
2023-08-12T04:49:42.176Z,5.72
2023-08-12T04:52:09.458Z,12.13
2023-08-12T04:54:36.420Z,6.25
2023-08-12T04:57:03.278Z,4.35
2023-08-12T04:59:30.087Z,8.70
2023-08-12T05:02:04.753Z,4.68
2023-08-12T05:04:33.901Z,7.47
2023-08-12T05:07:00.758Z,4.75
2023-08-12T05:09:27.710Z,6.35
2023-08-12T05:11:54.548Z,4.25
2023-08-12T05:14:21.462Z,4.43
2023-08-12T05:16:48.689Z,4.35
2023-08-12T05:19:15.665Z,6.65
2023-08-12T05:21:42.518Z,4.55
2023-08-12T05:24:09.868Z,5.65
2023-08-12T05:26:45.801Z,7.07
2023-08-12T05:29:12.678Z,6.13
2023-08-12T05:31:39.573Z,3.55
2023-08-12T05:34:06.622Z,4.97
2023-08-12T05:36:33.669Z,3.72
2023-08-12T05:39:00.648Z,5.13
2023-08-12T05:41:27.625Z,4.22
2023-08-12T05:43:54.479Z,3.45
2023-08-12T05:46:21.498Z,3.85
2023-08-12T05:48:48.408Z,9.32
2023-08-12T05:51:15.275Z,6.20
2023-08-12T05:53:42.106Z,3.03
2023-08-12T05:56:08.951Z,3.60
2023-08-12T05:58:35.905Z,4.07
2023-08-12T06:01:03.078Z,2.85
2023-08-12T06:03:29.983Z,5.38
2023-08-12T06:05:57.021Z,2.38
2023-08-12T06:08:23.896Z,4.85
2023-08-12T06:10:50.699Z,2.90
2023-08-12T06:13:18.609Z,5.57
2023-08-12T06:15:45.441Z,2.25
2023-08-12T06:18:12.504Z,5.07
2023-08-12T06:20:39.432Z,5.47
2023-08-12T06:23:06.262Z,3.97
2023-08-12T06:25:33.104Z,2.58
2023-08-12T06:28:00.035Z,2.63
2023-08-12T06:30:26.997Z,3.20
2023-08-12T06:32:53.892Z,2.92
2023-08-12T06:35:20.893Z,4.10
2023-08-12T06:37:48.079Z,2.83
2023-08-12T06:40:14.997Z,1.90
2023-08-12T06:42:41.806Z,2.50
2023-08-12T06:45:09.438Z,5.95
2023-08-12T06:47:36.292Z,1.60
2023-08-12T06:50:03.206Z,2.58
2023-08-12T06:52:30.088Z,2.63
2023-08-12T06:54:56.998Z,2.17
2023-08-12T06:57:23.832Z,2.45
2023-08-12T06:59:50.882Z,1.90
2023-08-12T07:02:17.870Z,1.70
2023-08-12T07:04:44.777Z,5.90
2023-08-12T07:07:11.656Z,2.42
2023-08-12T07:09:38.554Z,2.17
2023-08-12T07:12:05.757Z,1.95
2023-08-12T07:14:32.675Z,2.05
2023-08-12T07:16:59.505Z,1.85
2023-08-12T07:19:26.337Z,1.40
2023-08-12T07:21:53.210Z,2.78
2023-08-12T07:24:20.148Z,1.73
2023-08-12T07:26:47.104Z,1.55
2023-08-12T07:29:14.650Z,2.13
2023-08-12T07:31:41.522Z,3.80
2023-08-12T07:34:08.387Z,1.20
2023-08-12T07:36:35.297Z,2.38
2023-08-12T07:39:02.129Z,2.22
2023-08-12T07:41:29.197Z,1.73
2023-08-12T07:43:56.239Z,1.02
2023-08-12T07:46:23.361Z,1.33
2023-08-12T07:48:50.441Z,1.30
2023-08-12T07:51:17.356Z,1.08
2023-08-12T07:53:44.246Z,2.55
2023-08-12T07:56:11.395Z,1.20
2023-08-12T07:58:38.344Z,1.85
2023-08-12T08:01:06.084Z,3.35
2023-08-12T08:03:33.116Z,1.42
2023-08-12T08:06:00.004Z,1.13
2023-08-12T08:08:26.851Z,1.00
2023-08-12T08:10:53.717Z,1.20
2023-08-12T08:13:20.652Z,0.82
2023-08-12T08:15:47.658Z,0.88
2023-08-12T08:18:14.670Z,0.85
2023-08-12T08:20:46.124Z,1.33
2023-08-12T08:23:13.418Z,2.15
2023-08-12T08:25:40.408Z,1.40
2023-08-12T08:28:07.380Z,0.75
2023-08-12T08:30:34.311Z,1.17
2023-08-12T08:33:01.309Z,1.38
2023-08-12T08:35:28.456Z,1.58
2023-08-12T08:37:55.492Z,1.13
2023-08-12T08:40:22.422Z,0.85
2023-08-12T08:42:54.362Z,2.78
2023-08-12T08:45:23.451Z,1.00
2023-08-12T08:47:52.918Z,3.20
2023-08-12T08:50:21.629Z,0.73
2023-08-12T08:52:49.883Z,0.98
2023-08-12T08:55:18.097Z,1.95
2023-08-12T08:57:47.759Z,0.82
2023-08-12T09:00:17.907Z,4.50
2023-08-12T09:02:47.680Z,0.85
2023-08-12T09:05:16.401Z,1.05
2023-08-12T09:07:45.405Z,4.80
2023-08-12T09:10:15.275Z,0.77
2023-08-12T09:12:43.698Z,2.38
2023-08-12T09:15:11.171Z,0.77
2023-08-12T09:17:38.606Z,2.15
2023-08-12T09:20:12.911Z,1.35
2023-08-12T09:22:41.780Z,1.95
2023-08-12T09:25:10.248Z,1.75
2023-08-12T09:27:40.833Z,0.55
2023-08-12T09:30:09.351Z,0.63
2023-08-12T09:32:36.677Z,1.48
2023-08-12T09:35:05.000Z,2.28
2023-08-12T09:37:32.220Z,0.80
2023-08-12T09:39:59.686Z,1.30
2023-08-12T09:42:27.082Z,2.97
2023-08-12T09:44:54.144Z,1.42
2023-08-12T09:47:21.188Z,0.73
2023-08-12T09:49:48.086Z,1.05
2023-08-12T09:52:15.282Z,0.98
2023-08-12T09:54:42.505Z,0.98
2023-08-12T09:57:12.565Z,0.90
2023-08-12T09:59:42.505Z,1.85
2023-08-12T10:02:19.143Z,1.00
2023-08-12T10:04:47.601Z,2.80
2023-08-12T10:07:15.097Z,1.92
2023-08-12T10:09:42.747Z,0.88
2023-08-12T10:12:10.646Z,1.05
2023-08-12T10:14:39.389Z,1.15
2023-08-12T10:17:06.885Z,1.02
2023-08-12T10:19:35.519Z,0.98
2023-08-12T10:22:04.645Z,0.50
2023-08-12T10:24:32.445Z,3.07
2023-08-12T10:26:59.438Z,2.90
2023-08-12T10:29:26.454Z,0.70
2023-08-12T10:31:53.680Z,10.98
2023-08-12T10:34:25.088Z,0.40
2023-08-12T10:37:04.345Z,2.80
2023-08-12T10:39:35.339Z,1.77
2023-08-12T10:42:02.251Z,0.77
2023-08-12T10:44:55.360Z,2.75
2023-08-12T10:47:22.329Z,2.17
2023-08-12T10:49:50.695Z,1.10
2023-08-12T10:52:35.360Z,0.55
2023-08-12T10:55:20.948Z,1.90
2023-08-12T10:57:48.310Z,1.85
2023-08-12T11:00:19.905Z,0.43
2023-08-12T11:02:49.699Z,1.42
2023-08-12T11:05:16.788Z,0.85
2023-08-12T11:07:45.985Z,1.02
2023-08-12T11:10:17.197Z,1.30
2023-08-12T11:12:52.982Z,1.13
2023-08-12T11:15:30.602Z,1.60
2023-08-12T11:17:57.481Z,2.08
2023-08-12T11:20:25.830Z,3.50
2023-08-12T11:22:54.222Z,0.75
2023-08-12T11:25:21.244Z,0.57
2023-08-12T11:27:49.235Z,2.15
2023-08-12T11:30:21.402Z,5.25
2023-08-12T11:32:50.564Z,1.40
2023-08-12T11:35:18.767Z,1.10
2023-08-12T11:37:48.212Z,1.55
2023-08-12T11:40:17.493Z,1.38
2023-08-12T11:42:46.898Z,3.23
2023-08-12T11:45:15.629Z,2.45
2023-08-12T11:47:42.911Z,0.68
2023-08-12T11:50:12.082Z,0.50
2023-08-12T11:52:39.554Z,0.85
2023-08-12T11:55:07.345Z,2.50
2023-08-12T11:57:38.206Z,0.75
2023-08-12T12:00:19.861Z,0.77
2023-08-12T12:02:46.871Z,0.77
2023-08-12T12:05:14.796Z,1.88
2023-08-12T12:07:42.451Z,6.70
2023-08-12T12:10:09.993Z,1.25
2023-08-12T12:12:37.818Z,3.75
2023-08-12T12:15:06.190Z,1.08
2023-08-12T12:17:34.184Z,0.85
2023-08-12T12:20:02.150Z,1.50
2023-08-12T12:22:31.614Z,1.17
2023-08-12T12:25:07.443Z,1.52
2023-08-12T12:27:34.660Z,1.17
2023-08-12T12:30:02.534Z,0.43
2023-08-12T12:32:30.348Z,1.95
2023-08-12T12:34:57.251Z,1.98
2023-08-12T12:37:24.154Z,1.60
2023-08-12T12:39:51.017Z,2.03
2023-08-12T12:42:17.886Z,1.25
2023-08-12T12:44:44.701Z,1.88
2023-08-12T12:47:13.406Z,1.38
2023-08-12T12:49:42.558Z,0.80
2023-08-12T12:52:09.482Z,1.17
2023-08-12T12:54:36.425Z,1.38
2023-08-12T12:57:04.843Z,5.05
2023-08-12T12:59:32.161Z,0.80
2023-08-12T13:01:59.106Z,0.90
2023-08-12T13:04:26.160Z,1.98
2023-08-12T13:06:53.080Z,2.03
2023-08-12T13:09:19.992Z,1.05
2023-08-12T13:11:46.833Z,2.92
2023-08-12T13:14:13.707Z,1.38
2023-08-12T13:16:40.695Z,1.20
2023-08-12T13:19:07.565Z,1.10
2023-08-12T13:21:34.622Z,0.68
2023-08-12T13:24:02.759Z,1.70
2023-08-12T13:26:29.705Z,1.25
2023-08-12T13:28:56.566Z,2.20
2023-08-12T13:31:23.457Z,2.47
2023-08-12T13:33:51.460Z,0.85
2023-08-12T13:36:18.637Z,0.90
2023-08-12T13:38:45.563Z,1.63
2023-08-12T13:41:12.482Z,2.45
2023-08-12T13:43:39.282Z,2.10
2023-08-12T13:46:06.126Z,3.67
2023-08-12T13:48:33.034Z,1.98
2023-08-12T13:51:01.772Z,2.92
2023-08-12T13:53:29.019Z,1.40
2023-08-12T13:55:55.971Z,2.25
2023-08-12T13:58:22.911Z,1.58
2023-08-12T14:00:49.797Z,0.90
2023-08-12T14:03:16.675Z,2.35
2023-08-12T14:05:45.075Z,1.92
2023-08-12T14:08:11.908Z,2.90
2023-08-12T14:10:38.898Z,7.25
2023-08-12T14:13:07.702Z,1.67
2023-08-12T14:15:34.863Z,1.20
2023-08-12T14:18:01.851Z,1.33
2023-08-12T14:20:28.768Z,0.60
2023-08-12T14:22:55.666Z,1.05
2023-08-12T14:25:22.581Z,2.22
2023-08-12T14:27:49.602Z,1.63
2023-08-12T14:30:20.495Z,1.17
2023-08-12T14:32:49.679Z,2.97
2023-08-12T14:35:18.157Z,1.45
2023-08-12T14:37:45.155Z,1.02
2023-08-12T14:40:12.410Z,1.02
2023-08-12T14:42:39.277Z,1.95
2023-08-12T14:45:06.934Z,1.17
2023-08-12T14:47:33.798Z,2.28
2023-08-12T14:50:00.815Z,1.48
2023-08-12T14:52:27.738Z,1.55
2023-08-12T14:54:54.808Z,2.00
2023-08-12T14:57:21.632Z,1.33
2023-08-12T14:59:51.890Z,4.13
2023-08-12T15:02:23.268Z,1.90
2023-08-12T15:04:51.092Z,1.23
2023-08-12T15:07:19.608Z,7.47
2023-08-12T15:09:46.638Z,2.92
2023-08-12T15:12:13.514Z,1.35
2023-08-12T15:14:40.824Z,0.95
2023-08-12T15:17:07.853Z,1.00
2023-08-12T15:19:34.756Z,1.33
2023-08-12T15:22:01.669Z,2.33
2023-08-12T15:24:28.822Z,1.38
2023-08-12T15:26:55.698Z,0.93
2023-08-12T15:29:22.638Z,4.95
2023-08-12T15:31:49.511Z,1.27
2023-08-12T15:34:16.480Z,1.77
2023-08-12T15:36:44.317Z,6.70
2023-08-12T15:39:12.527Z,1.52
2023-08-12T15:41:44.080Z,2.70
2023-08-12T15:44:14.670Z,1.58
2023-08-12T15:46:41.976Z,2.72
2023-08-12T15:49:12.322Z,2.95
2023-08-12T15:51:42.304Z,3.25
2023-08-12T15:54:09.543Z,2.97
2023-08-12T15:56:38.130Z,1.05
2023-08-12T15:59:06.760Z,2.63
2023-08-12T16:01:34.650Z,1.83
2023-08-12T16:04:01.743Z,0.60
2023-08-12T16:06:29.496Z,1.02
2023-08-12T16:09:17.000Z,2.95
2023-08-12T16:11:43.481Z,2.40
2023-08-12T16:14:10.352Z,1.95
2023-08-12T16:16:37.185Z,2.83
2023-08-12T16:19:04.246Z,0.65
2023-08-12T16:21:31.145Z,0.90
2023-08-12T16:23:58.018Z,1.42
2023-08-12T16:26:24.934Z,1.58
2023-08-12T16:28:51.867Z,0.73
2023-08-12T16:31:18.919Z,2.80
2023-08-12T16:33:45.862Z,2.30
2023-08-12T16:36:12.789Z,1.27
2023-08-12T16:38:40.033Z,1.38
2023-08-12T16:41:06.968Z,2.30
2023-08-12T16:43:33.916Z,1.48
2023-08-12T16:46:00.906Z,2.60
2023-08-12T16:48:27.847Z,1.83
2023-08-12T16:50:54.754Z,0.75
2023-08-12T16:53:21.757Z,1.38
2023-08-12T16:55:49.005Z,2.58
2023-08-12T16:58:15.861Z,1.65
2023-08-12T17:00:43.912Z,1.60
2023-08-12T17:03:11.027Z,1.67
2023-08-12T17:05:37.957Z,1.20
2023-08-12T17:08:05.205Z,1.45
2023-08-12T17:10:33.879Z,3.13
2023-08-12T17:13:00.698Z,1.42
2023-08-12T17:15:29.092Z,1.35
2023-08-12T17:17:56.131Z,2.53
2023-08-12T17:20:23.023Z,1.17
2023-08-12T17:22:49.868Z,1.98
2023-08-12T17:25:16.795Z,2.58
2023-08-12T17:27:43.594Z,0.73
2023-08-12T17:30:11.249Z,1.90
2023-08-12T17:32:38.124Z,4.32
2023-08-12T17:35:05.201Z,1.05
2023-08-12T17:37:39.386Z,4.95
2023-08-12T17:40:07.571Z,1.27
2023-08-12T17:42:34.836Z,1.85
2023-08-12T17:45:01.683Z,3.67
2023-08-12T17:47:28.643Z,7.57
2023-08-12T17:49:55.499Z,2.13
2023-08-12T17:52:22.331Z,6.10
2023-08-12T17:54:49.158Z,1.77
2023-08-12T17:57:16.102Z,1.17
2023-08-12T17:59:42.934Z,5.32
2023-08-12T18:02:09.820Z,5.78
2023-08-12T18:04:36.627Z,6.03
2023-08-12T18:07:04.718Z,7.03
2023-08-12T18:09:31.559Z,7.88
2023-08-12T18:11:58.466Z,8.60
2023-08-12T18:14:25.325Z,7.43
2023-08-12T18:16:52.244Z,2.85
2023-08-12T18:19:19.143Z,1.85
2023-08-12T18:21:46.024Z,2.35
2023-08-12T18:24:12.953Z,3.30
2023-08-12T18:26:39.862Z,1.45
2023-08-12T18:29:06.709Z,3.75
2023-08-12T18:31:33.791Z,1.98
2023-08-12T18:34:00.755Z,2.92
2023-08-12T18:36:27.634Z,3.10
2023-08-12T18:38:54.446Z,2.97
2023-08-12T18:41:21.305Z,3.45
2023-08-12T18:43:48.319Z,4.57
2023-08-12T18:46:15.190Z,3.00
2023-08-12T18:48:42.100Z,2.60
2023-08-12T18:51:08.993Z,2.47
2023-08-12T18:53:35.840Z,2.15
2023-08-12T18:56:02.871Z,3.15
2023-08-12T18:58:29.956Z,3.13
2023-08-12T19:00:56.903Z,1.83
2023-08-12T19:03:23.911Z,5.45
2023-08-12T19:05:58.173Z,5.20
2023-08-12T19:08:25.180Z,3.67
2023-08-12T19:10:59.061Z,5.97
2023-08-12T19:13:26.799Z,4.47
2023-08-12T19:15:55.463Z,4.20
2023-08-12T19:18:24.201Z,3.50
2023-08-12T19:20:51.962Z,2.40
2023-08-12T19:23:19.672Z,4.30
2023-08-12T19:25:46.881Z,3.10
2023-08-12T19:28:13.836Z,5.75
2023-08-12T19:30:40.705Z,3.55
2023-08-12T19:33:07.663Z,7.22
2023-08-12T19:35:34.790Z,4.68
2023-08-12T19:38:01.701Z,2.92
2023-08-12T19:40:28.826Z,4.25
2023-08-12T19:42:55.704Z,2.85
2023-08-12T19:45:22.752Z,3.30
2023-08-12T19:47:49.728Z,2.90
2023-08-12T19:50:16.613Z,7.05
2023-08-12T19:52:43.475Z,2.45
2023-08-12T19:55:10.403Z,2.78
2023-08-12T19:57:37.250Z,5.13
2023-08-12T20:00:09.485Z,3.53
2023-08-12T20:02:42.748Z,1.88
2023-08-12T20:05:17.779Z,5.90
2023-08-12T20:07:47.604Z,2.78
2023-08-12T20:10:15.707Z,3.88
2023-08-12T20:12:43.061Z,3.58
2023-08-12T20:15:10.868Z,4.10
2023-08-12T20:17:38.023Z,8.60
2023-08-12T20:20:09.344Z,3.25
2023-08-12T20:22:37.377Z,5.25
2023-08-12T20:25:07.501Z,3.35
2023-08-12T20:27:34.713Z,6.28
2023-08-12T20:30:01.536Z,7.15
2023-08-12T20:32:31.441Z,3.60
2023-08-12T20:34:58.983Z,4.80
2023-08-12T20:37:27.820Z,3.60
2023-08-12T20:39:56.067Z,4.07
2023-08-12T20:42:23.991Z,5.95
2023-08-12T20:44:51.316Z,3.40
2023-08-12T20:47:19.028Z,4.85
2023-08-12T20:49:45.924Z,4.43
2023-08-12T20:52:14.952Z,6.07
2023-08-12T20:54:42.235Z,4.22
2023-08-12T20:57:09.039Z,9.45
2023-08-12T20:59:35.886Z,5.50
2023-08-12T21:02:02.884Z,3.85
2023-08-12T21:04:29.750Z,2.35
2023-08-12T21:06:59.546Z,5.25
2023-08-12T21:09:26.588Z,3.80
2023-08-12T21:11:53.461Z,4.65
2023-08-12T21:14:20.749Z,7.15
2023-08-12T21:16:48.208Z,3.08
2023-08-12T21:19:16.442Z,3.90
2023-08-12T21:21:44.156Z,4.13
2023-08-12T21:24:11.326Z,4.95
2023-08-12T21:26:38.262Z,3.58
2023-08-12T21:29:05.482Z,4.63
2023-08-12T21:31:32.412Z,3.75
2023-08-12T21:33:59.364Z,2.75
2023-08-12T21:36:26.314Z,3.67
2023-08-12T21:38:53.256Z,2.10
2023-08-12T21:41:20.078Z,3.75
2023-08-12T21:43:47.033Z,4.40
2023-08-12T21:46:13.910Z,2.63
2023-08-12T21:48:40.916Z,7.50
2023-08-12T21:51:09.387Z,2.38
2023-08-12T21:53:36.431Z,2.80
2023-08-12T21:56:03.354Z,2.92
2023-08-12T21:58:30.248Z,4.47
2023-08-12T22:00:57.630Z,5.22
2023-08-12T22:03:24.600Z,7.15
2023-08-12T22:05:52.368Z,5.43
2023-08-12T22:08:19.284Z,3.47
2023-08-12T22:10:46.212Z,3.80
2023-08-12T22:13:13.075Z,5.20
2023-08-12T22:15:40.027Z,4.53
2023-08-12T22:18:07.382Z,3.08
2023-08-12T22:20:34.354Z,2.92
2023-08-12T22:23:01.629Z,5.90
2023-08-12T22:25:28.601Z,4.03
2023-08-12T22:27:56.452Z,4.38
2023-08-12T22:30:23.575Z,10.15
2023-08-12T22:32:50.573Z,4.47
2023-08-12T22:35:18.298Z,2.15
2023-08-12T22:37:45.131Z,5.13
2023-08-12T22:40:11.951Z,2.90
2023-08-12T22:42:38.837Z,4.05
2023-08-12T22:45:08.607Z,2.03
2023-08-12T22:47:35.660Z,2.85
2023-08-12T22:50:04.827Z,2.92
2023-08-12T22:52:31.843Z,3.47
2023-08-12T22:54:58.776Z,2.90
2023-08-12T22:57:25.661Z,12.77
2023-08-12T22:59:52.560Z,3.80
2023-08-12T23:02:19.493Z,2.85
2023-08-12T23:04:46.415Z,4.85
2023-08-12T23:07:13.531Z,3.97
2023-08-12T23:09:40.891Z,3.50
2023-08-12T23:12:08.008Z,2.13
2023-08-12T23:14:34.846Z,2.80
2023-08-12T23:17:01.826Z,3.38
2023-08-12T23:19:28.745Z,2.42
2023-08-12T23:21:55.597Z,2.90
2023-08-12T23:24:22.767Z,2.92
2023-08-12T23:26:49.647Z,3.35
2023-08-12T23:29:17.818Z,2.95
2023-08-12T23:31:44.657Z,5.38
2023-08-12T23:34:11.513Z,2.10
2023-08-12T23:36:38.371Z,2.65
2023-08-12T23:39:05.627Z,3.80
2023-08-12T23:41:32.923Z,3.42
2023-08-12T23:43:59.902Z,2.53
2023-08-12T23:46:26.927Z,3.22
2023-08-12T23:48:53.820Z,2.67
2023-08-12T23:51:20.664Z,4.15
2023-08-12T23:53:47.919Z,2.70
2023-08-12T23:56:14.733Z,4.57
2023-08-12T23:58:41.712Z,2.70
